sensor_id;sensor_type;location;lat;lon;timestamp;P1;durP1;ratioP1;P2;durP2;ratioP2
26656;SDS011;14279;50.010;8.260;2022-12-29T00:01:15;4.53;;;2.43;;
26656;SDS011;14279;50.010;8.260;2022-12-29T00:03:40;2.73;;;2.50;;
26656;SDS011;14279;50.010;8.260;2022-12-29T00:06:05;3.67;;;2.30;;
26656;SDS011;14279;50.010;8.260;2022-12-29T00:08:30;3.73;;;2.27;;
26656;SDS011;14279;50.010;8.260;2022-12-29T00:11:08;4.37;;;2.50;;
26656;SDS011;14279;50.010;8.260;2022-12-29T00:13:35;7.13;;;2.60;;
26656;SDS011;14279;50.010;8.260;2022-12-29T00:16:19;3.73;;;2.50;;
26656;SDS011;14279;50.010;8.260;2022-12-29T00:18:44;3.83;;;2.50;;
26656;SDS011;14279;50.010;8.260;2022-12-29T00:21:13;3.47;;;2.23;;
26656;SDS011;14279;50.010;8.260;2022-12-29T00:23:58;2.40;;;2.20;;
26656;SDS011;14279;50.010;8.260;2022-12-29T00:26:42;4.00;;;2.73;;
26656;SDS011;14279;50.010;8.260;2022-12-29T00:29:26;10.43;;;2.60;;
26656;SDS011;14279;50.010;8.260;2022-12-29T00:32:10;4.30;;;2.17;;
26656;SDS011;14279;50.010;8.260;2022-12-29T00:34:54;6.93;;;2.20;;
26656;SDS011;14279;50.010;8.260;2022-12-29T00:37:37;5.63;;;2.13;;
26656;SDS011;14279;50.010;8.260;2022-12-29T00:40:25;5.77;;;2.50;;
26656;SDS011;14279;50.010;8.260;2022-12-29T00:43:09;3.13;;;1.73;;
26656;SDS011;14279;50.010;8.260;2022-12-29T00:45:53;6.20;;;2.47;;
26656;SDS011;14279;50.010;8.260;2022-12-29T00:48:18;5.20;;;2.17;;
26656;SDS011;14279;50.010;8.260;2022-12-29T00:51:04;4.40;;;2.70;;
26656;SDS011;14279;50.010;8.260;2022-12-29T00:53:29;6.17;;;2.23;;
26656;SDS011;14279;50.010;8.260;2022-12-29T00:55:55;3.83;;;2.20;;
26656;SDS011;14279;50.010;8.260;2022-12-29T00:58:20;4.07;;;2.70;;
26656;SDS011;14279;50.010;8.260;2022-12-29T01:00:45;2.43;;;2.20;;
26656;SDS011;14279;50.010;8.260;2022-12-29T01:03:10;3.90;;;1.90;;
26656;SDS011;14279;50.010;8.260;2022-12-29T01:05:36;4.10;;;1.87;;
26656;SDS011;14279;50.010;8.260;2022-12-29T01:08:01;5.33;;;2.23;;
26656;SDS011;14279;50.010;8.260;2022-12-29T01:10:27;2.90;;;1.87;;
26656;SDS011;14279;50.010;8.260;2022-12-29T01:12:52;2.57;;;2.00;;
26656;SDS011;14279;50.010;8.260;2022-12-29T01:15:17;2.70;;;2.10;;
26656;SDS011;14279;50.010;8.260;2022-12-29T01:17:42;2.97;;;2.00;;
26656;SDS011;14279;50.010;8.260;2022-12-29T01:20:08;5.80;;;2.47;;
26656;SDS011;14279;50.010;8.260;2022-12-29T01:22:33;4.03;;;2.07;;
26656;SDS011;14279;50.010;8.260;2022-12-29T01:24:59;2.83;;;1.90;;
26656;SDS011;14279;50.010;8.260;2022-12-29T01:27:24;2.43;;;1.87;;
26656;SDS011;14279;50.010;8.260;2022-12-29T01:29:49;4.13;;;2.50;;
26656;SDS011;14279;50.010;8.260;2022-12-29T01:32:14;2.20;;;1.90;;
26656;SDS011;14279;50.010;8.260;2022-12-29T01:34:40;2.57;;;2.30;;
26656;SDS011;14279;50.010;8.260;2022-12-29T01:37:05;3.17;;;1.90;;
26656;SDS011;14279;50.010;8.260;2022-12-29T01:39:30;2.73;;;2.40;;
26656;SDS011;14279;50.010;8.260;2022-12-29T01:41:55;2.60;;;1.70;;
26656;SDS011;14279;50.010;8.260;2022-12-29T01:49:59;3.10;;;2.03;;
26656;SDS011;14279;50.010;8.260;2022-12-29T01:52:30;1.77;;;1.67;;
26656;SDS011;14279;50.010;8.260;2022-12-29T01:54:58;2.00;;;1.80;;
26656;SDS011;14279;50.010;8.260;2022-12-29T01:57:28;2.07;;;1.80;;
26656;SDS011;14279;50.010;8.260;2022-12-29T01:59:59;3.30;;;2.00;;
26656;SDS011;14279;50.010;8.260;2022-12-29T02:02:28;2.00;;;1.63;;
26656;SDS011;14279;50.010;8.260;2022-12-29T02:04:55;5.00;;;2.10;;
26656;SDS011;14279;50.010;8.260;2022-12-29T02:07:24;3.90;;;2.53;;
26656;SDS011;14279;50.010;8.260;2022-12-29T02:09:51;1.90;;;1.80;;
26656;SDS011;14279;50.010;8.260;2022-12-29T02:12:19;3.60;;;2.00;;
26656;SDS011;14279;50.010;8.260;2022-12-29T02:14:46;2.23;;;2.00;;
26656;SDS011;14279;50.010;8.260;2022-12-29T02:20:14;3.03;;;2.43;;
26656;SDS011;14279;50.010;8.260;2022-12-29T02:26:05;2.90;;;1.97;;
26656;SDS011;14279;50.010;8.260;2022-12-29T02:31:45;1.53;;;1.43;;
26656;SDS011;14279;50.010;8.260;2022-12-29T02:37:17;8.40;;;1.53;;
26656;SDS011;14279;50.010;8.260;2022-12-29T02:42:25;4.03;;;1.67;;
26656;SDS011;14279;50.010;8.260;2022-12-29T02:47:56;2.00;;;1.10;;
26656;SDS011;14279;50.010;8.260;2022-12-29T02:50:34;1.53;;;1.20;;
26656;SDS011;14279;50.010;8.260;2022-12-29T02:53:07;1.50;;;1.40;;
26656;SDS011;14279;50.010;8.260;2022-12-29T02:55:36;1.63;;;1.43;;
26656;SDS011;14279;50.010;8.260;2022-12-29T02:58:06;2.20;;;1.47;;
26656;SDS011;14279;50.010;8.260;2022-12-29T03:00:46;1.50;;;1.33;;
26656;SDS011;14279;50.010;8.260;2022-12-29T03:06:05;2.17;;;1.20;;
26656;SDS011;14279;50.010;8.260;2022-12-29T03:08:52;3.30;;;1.67;;
26656;SDS011;14279;50.010;8.260;2022-12-29T03:11:27;6.33;;;1.80;;
26656;SDS011;14279;50.010;8.260;2022-12-29T03:14:22;4.70;;;1.50;;
26656;SDS011;14279;50.010;8.260;2022-12-29T03:17:16;2.43;;;1.23;;
26656;SDS011;14279;50.010;8.260;2022-12-29T03:19:48;1.93;;;1.60;;
26656;SDS011;14279;50.010;8.260;2022-12-29T03:22:21;1.60;;;1.40;;
26656;SDS011;14279;50.010;8.260;2022-12-29T03:24:54;3.30;;;1.23;;
26656;SDS011;14279;50.010;8.260;2022-12-29T03:27:25;6.00;;;2.03;;
26656;SDS011;14279;50.010;8.260;2022-12-29T03:29:56;3.43;;;1.60;;
26656;SDS011;14279;50.010;8.260;2022-12-29T03:32:27;1.93;;;1.60;;
26656;SDS011;14279;50.010;8.260;2022-12-29T03:34:56;4.00;;;1.67;;
26656;SDS011;14279;50.010;8.260;2022-12-29T03:37:28;2.93;;;1.70;;
26656;SDS011;14279;50.010;8.260;2022-12-29T03:39:59;4.30;;;1.67;;
26656;SDS011;14279;50.010;8.260;2022-12-29T03:42:25;2.70;;;1.63;;
26656;SDS011;14279;50.010;8.260;2022-12-29T03:44:54;5.90;;;2.03;;
26656;SDS011;14279;50.010;8.260;2022-12-29T03:47:21;4.20;;;1.70;;
26656;SDS011;14279;50.010;8.260;2022-12-29T03:49:47;4.93;;;1.43;;
26656;SDS011;14279;50.010;8.260;2022-12-29T03:52:13;1.77;;;1.67;;
26656;SDS011;14279;50.010;8.260;2022-12-29T03:54:38;3.43;;;1.80;;
26656;SDS011;14279;50.010;8.260;2022-12-29T03:57:04;6.00;;;2.23;;
26656;SDS011;14279;50.010;8.260;2022-12-29T03:59:29;3.67;;;1.73;;
26656;SDS011;14279;50.010;8.260;2022-12-29T04:01:54;3.63;;;1.30;;
26656;SDS011;14279;50.010;8.260;2022-12-29T04:04:19;4.60;;;2.37;;
26656;SDS011;14279;50.010;8.260;2022-12-29T04:06:45;8.57;;;1.97;;
26656;SDS011;14279;50.010;8.260;2022-12-29T04:09:10;4.33;;;1.80;;
26656;SDS011;14279;50.010;8.260;2022-12-29T04:11:36;7.00;;;1.90;;
26656;SDS011;14279;50.010;8.260;2022-12-29T04:14:01;3.93;;;1.70;;
26656;SDS011;14279;50.010;8.260;2022-12-29T04:16:26;3.47;;;1.73;;
26656;SDS011;14279;50.010;8.260;2022-12-29T04:18:51;2.83;;;1.30;;
26656;SDS011;14279;50.010;8.260;2022-12-29T04:21:17;5.40;;;1.80;;
26656;SDS011;14279;50.010;8.260;2022-12-29T04:23:42;1.63;;;1.53;;
26656;SDS011;14279;50.010;8.260;2022-12-29T04:26:07;4.40;;;1.53;;
26656;SDS011;14279;50.010;8.260;2022-12-29T04:28:34;9.70;;;1.83;;
26656;SDS011;14279;50.010;8.260;2022-12-29T04:30:59;2.20;;;1.37;;
26656;SDS011;14279;50.010;8.260;2022-12-29T04:33:25;5.10;;;1.73;;
26656;SDS011;14279;50.010;8.260;2022-12-29T04:35:50;2.30;;;1.30;;
26656;SDS011;14279;50.010;8.260;2022-12-29T04:38:19;4.33;;;1.47;;
26656;SDS011;14279;50.010;8.260;2022-12-29T04:40:45;1.93;;;1.60;;
26656;SDS011;14279;50.010;8.260;2022-12-29T04:43:11;1.67;;;1.40;;
26656;SDS011;14279;50.010;8.260;2022-12-29T04:45:36;5.33;;;1.83;;
26656;SDS011;14279;50.010;8.260;2022-12-29T04:48:02;5.57;;;1.70;;
26656;SDS011;14279;50.010;8.260;2022-12-29T04:50:27;3.23;;;1.60;;
26656;SDS011;14279;50.010;8.260;2022-12-29T04:52:53;3.50;;;1.80;;
26656;SDS011;14279;50.010;8.260;2022-12-29T04:55:18;4.97;;;2.10;;
26656;SDS011;14279;50.010;8.260;2022-12-29T04:57:44;4.73;;;1.90;;
26656;SDS011;14279;50.010;8.260;2022-12-29T05:00:09;6.33;;;1.50;;
26656;SDS011;14279;50.010;8.260;2022-12-29T05:02:35;2.67;;;1.67;;
26656;SDS011;14279;50.010;8.260;2022-12-29T05:05:01;4.57;;;1.40;;
26656;SDS011;14279;50.010;8.260;2022-12-29T05:07:27;1.67;;;1.40;;
26656;SDS011;14279;50.010;8.260;2022-12-29T05:09:52;4.93;;;1.70;;
26656;SDS011;14279;50.010;8.260;2022-12-29T05:12:17;2.10;;;1.87;;
26656;SDS011;14279;50.010;8.260;2022-12-29T05:14:43;3.90;;;2.07;;
26656;SDS011;14279;50.010;8.260;2022-12-29T05:17:08;4.10;;;1.87;;
26656;SDS011;14279;50.010;8.260;2022-12-29T05:19:33;3.67;;;2.00;;
26656;SDS011;14279;50.010;8.260;2022-12-29T05:21:58;2.00;;;1.77;;
26656;SDS011;14279;50.010;8.260;2022-12-29T05:24:24;3.50;;;1.60;;
26656;SDS011;14279;50.010;8.260;2022-12-29T05:26:49;5.53;;;1.70;;
26656;SDS011;14279;50.010;8.260;2022-12-29T05:29:14;2.77;;;1.80;;
26656;SDS011;14279;50.010;8.260;2022-12-29T05:31:39;2.23;;;1.87;;
26656;SDS011;14279;50.010;8.260;2022-12-29T05:34:05;3.20;;;1.30;;
26656;SDS011;14279;50.010;8.260;2022-12-29T05:36:30;3.40;;;1.77;;
26656;SDS011;14279;50.010;8.260;2022-12-29T05:38:55;4.30;;;1.73;;
26656;SDS011;14279;50.010;8.260;2022-12-29T05:41:20;4.60;;;1.70;;
26656;SDS011;14279;50.010;8.260;2022-12-29T05:43:46;5.00;;;1.87;;
26656;SDS011;14279;50.010;8.260;2022-12-29T05:46:11;4.13;;;2.13;;
26656;SDS011;14279;50.010;8.260;2022-12-29T05:48:36;4.00;;;1.80;;
26656;SDS011;14279;50.010;8.260;2022-12-29T05:51:02;3.90;;;1.73;;
26656;SDS011;14279;50.010;8.260;2022-12-29T05:53:27;2.10;;;1.80;;
26656;SDS011;14279;50.010;8.260;2022-12-29T05:55:52;5.37;;;1.80;;
26656;SDS011;14279;50.010;8.260;2022-12-29T05:58:18;1.57;;;1.47;;
26656;SDS011;14279;50.010;8.260;2022-12-29T06:00:44;8.93;;;1.60;;
26656;SDS011;14279;50.010;8.260;2022-12-29T06:03:09;2.20;;;1.47;;
26656;SDS011;14279;50.010;8.260;2022-12-29T06:05:35;3.10;;;1.60;;
26656;SDS011;14279;50.010;8.260;2022-12-29T06:08:00;4.10;;;1.60;;
26656;SDS011;14279;50.010;8.260;2022-12-29T06:10:26;1.73;;;1.60;;
26656;SDS011;14279;50.010;8.260;2022-12-29T06:12:51;4.87;;;1.70;;
26656;SDS011;14279;50.010;8.260;2022-12-29T06:15:16;3.23;;;1.60;;
26656;SDS011;14279;50.010;8.260;2022-12-29T06:17:42;3.17;;;1.57;;
26656;SDS011;14279;50.010;8.260;2022-12-29T06:20:07;2.67;;;1.30;;
26656;SDS011;14279;50.010;8.260;2022-12-29T06:22:34;1.77;;;1.50;;
26656;SDS011;14279;50.010;8.260;2022-12-29T06:24:59;2.20;;;1.33;;
26656;SDS011;14279;50.010;8.260;2022-12-29T06:27:26;2.03;;;1.60;;
26656;SDS011;14279;50.010;8.260;2022-12-29T06:29:51;2.10;;;1.70;;
26656;SDS011;14279;50.010;8.260;2022-12-29T06:32:16;3.83;;;1.60;;
26656;SDS011;14279;50.010;8.260;2022-12-29T06:34:42;3.17;;;1.67;;
26656;SDS011;14279;50.010;8.260;2022-12-29T06:37:07;3.17;;;1.40;;
26656;SDS011;14279;50.010;8.260;2022-12-29T06:39:32;4.03;;;1.50;;
26656;SDS011;14279;50.010;8.260;2022-12-29T06:41:57;9.53;;;1.70;;
26656;SDS011;14279;50.010;8.260;2022-12-29T06:44:23;5.90;;;1.60;;
26656;SDS011;14279;50.010;8.260;2022-12-29T06:46:49;3.57;;;1.57;;
26656;SDS011;14279;50.010;8.260;2022-12-29T06:49:16;4.70;;;2.10;;
26656;SDS011;14279;50.010;8.260;2022-12-29T06:51:41;4.50;;;1.90;;
26656;SDS011;14279;50.010;8.260;2022-12-29T06:54:06;3.80;;;1.40;;
26656;SDS011;14279;50.010;8.260;2022-12-29T06:56:32;3.00;;;1.90;;
26656;SDS011;14279;50.010;8.260;2022-12-29T06:58:57;1.90;;;1.80;;
26656;SDS011;14279;50.010;8.260;2022-12-29T07:01:25;10.73;;;2.30;;
26656;SDS011;14279;50.010;8.260;2022-12-29T07:03:50;5.63;;;1.90;;
26656;SDS011;14279;50.010;8.260;2022-12-29T07:06:15;2.90;;;2.17;;
26656;SDS011;14279;50.010;8.260;2022-12-29T07:08:40;4.97;;;1.97;;
26656;SDS011;14279;50.010;8.260;2022-12-29T07:11:06;2.33;;;1.80;;
26656;SDS011;14279;50.010;8.260;2022-12-29T07:13:31;3.40;;;2.00;;
26656;SDS011;14279;50.010;8.260;2022-12-29T07:15:56;9.70;;;1.90;;
26656;SDS011;14279;50.010;8.260;2022-12-29T07:18:22;4.10;;;2.03;;
26656;SDS011;14279;50.010;8.260;2022-12-29T07:20:47;5.17;;;1.80;;
26656;SDS011;14279;50.010;8.260;2022-12-29T07:23:12;3.67;;;1.87;;
26656;SDS011;14279;50.010;8.260;2022-12-29T07:25:38;3.90;;;2.03;;
26656;SDS011;14279;50.010;8.260;2022-12-29T07:28:05;15.50;;;2.23;;
26656;SDS011;14279;50.010;8.260;2022-12-29T07:30:31;7.30;;;1.80;;
26656;SDS011;14279;50.010;8.260;2022-12-29T07:32:56;3.57;;;1.97;;
26656;SDS011;14279;50.010;8.260;2022-12-29T07:35:21;4.83;;;1.90;;
26656;SDS011;14279;50.010;8.260;2022-12-29T07:37:47;3.27;;;2.07;;
26656;SDS011;14279;50.010;8.260;2022-12-29T07:40:13;3.37;;;1.93;;
26656;SDS011;14279;50.010;8.260;2022-12-29T07:42:39;3.23;;;1.97;;
26656;SDS011;14279;50.010;8.260;2022-12-29T07:45:04;6.37;;;2.30;;
26656;SDS011;14279;50.010;8.260;2022-12-29T07:47:30;11.13;;;2.43;;
26656;SDS011;14279;50.010;8.260;2022-12-29T07:49:55;7.47;;;2.57;;
26656;SDS011;14279;50.010;8.260;2022-12-29T07:52:20;3.63;;;2.50;;
26656;SDS011;14279;50.010;8.260;2022-12-29T07:54:45;4.23;;;2.20;;
26656;SDS011;14279;50.010;8.260;2022-12-29T07:57:11;5.80;;;2.50;;
26656;SDS011;14279;50.010;8.260;2022-12-29T07:59:36;6.70;;;2.33;;
26656;SDS011;14279;50.010;8.260;2022-12-29T08:02:01;4.00;;;2.20;;
26656;SDS011;14279;50.010;8.260;2022-12-29T08:04:26;3.60;;;2.43;;
26656;SDS011;14279;50.010;8.260;2022-12-29T08:06:52;3.90;;;2.23;;
26656;SDS011;14279;50.010;8.260;2022-12-29T08:09:17;5.60;;;2.33;;
26656;SDS011;14279;50.010;8.260;2022-12-29T08:11:42;5.60;;;2.20;;
26656;SDS011;14279;50.010;8.260;2022-12-29T08:14:08;5.90;;;2.17;;
26656;SDS011;14279;50.010;8.260;2022-12-29T08:16:34;4.00;;;2.50;;
26656;SDS011;14279;50.010;8.260;2022-12-29T08:18:59;13.93;;;2.93;;
26656;SDS011;14279;50.010;8.260;2022-12-29T08:21:25;4.73;;;2.87;;
26656;SDS011;14279;50.010;8.260;2022-12-29T08:23:52;3.47;;;2.40;;
26656;SDS011;14279;50.010;8.260;2022-12-29T08:26:17;9.40;;;2.67;;
26656;SDS011;14279;50.010;8.260;2022-12-29T08:28:42;4.93;;;2.50;;
26656;SDS011;14279;50.010;8.260;2022-12-29T08:31:08;7.67;;;2.60;;
26656;SDS011;14279;50.010;8.260;2022-12-29T08:33:33;5.50;;;2.20;;
26656;SDS011;14279;50.010;8.260;2022-12-29T08:35:59;3.50;;;2.43;;
26656;SDS011;14279;50.010;8.260;2022-12-29T08:38:26;8.63;;;2.53;;
26656;SDS011;14279;50.010;8.260;2022-12-29T08:40:52;7.03;;;2.77;;
26656;SDS011;14279;50.010;8.260;2022-12-29T08:43:18;2.60;;;2.40;;
26656;SDS011;14279;50.010;8.260;2022-12-29T08:45:43;8.03;;;3.00;;
26656;SDS011;14279;50.010;8.260;2022-12-29T08:48:08;6.77;;;2.57;;
26656;SDS011;14279;50.010;8.260;2022-12-29T08:50:33;6.30;;;3.10;;
26656;SDS011;14279;50.010;8.260;2022-12-29T08:52:59;5.97;;;3.23;;
26656;SDS011;14279;50.010;8.260;2022-12-29T08:55:24;4.90;;;2.50;;
26656;SDS011;14279;50.010;8.260;2022-12-29T08:57:49;3.60;;;3.23;;
26656;SDS011;14279;50.010;8.260;2022-12-29T09:00:14;7.73;;;3.63;;
26656;SDS011;14279;50.010;8.260;2022-12-29T09:02:40;5.40;;;3.60;;
26656;SDS011;14279;50.010;8.260;2022-12-29T09:05:05;6.40;;;3.40;;
26656;SDS011;14279;50.010;8.260;2022-12-29T09:07:31;7.73;;;3.57;;
26656;SDS011;14279;50.010;8.260;2022-12-29T09:09:56;4.93;;;3.03;;
26656;SDS011;14279;50.010;8.260;2022-12-29T09:12:21;11.30;;;3.57;;
26656;SDS011;14279;50.010;8.260;2022-12-29T09:14:47;4.33;;;3.20;;
26656;SDS011;14279;50.010;8.260;2022-12-29T09:17:12;4.53;;;2.53;;
26656;SDS011;14279;50.010;8.260;2022-12-29T09:19:56;4.70;;;3.10;;
26656;SDS011;14279;50.010;8.260;2022-12-29T09:22:21;3.40;;;2.93;;
26656;SDS011;14279;50.010;8.260;2022-12-29T09:24:46;4.83;;;3.27;;
26656;SDS011;14279;50.010;8.260;2022-12-29T09:27:12;19.67;;;3.50;;
26656;SDS011;14279;50.010;8.260;2022-12-29T09:29:37;5.27;;;3.63;;
26656;SDS011;14279;50.010;8.260;2022-12-29T09:32:03;7.13;;;3.30;;
26656;SDS011;14279;50.010;8.260;2022-12-29T09:34:28;11.30;;;3.17;;
26656;SDS011;14279;50.010;8.260;2022-12-29T09:36:53;6.63;;;3.27;;
26656;SDS011;14279;50.010;8.260;2022-12-29T09:39:19;5.20;;;3.90;;
26656;SDS011;14279;50.010;8.260;2022-12-29T09:44:29;2.90;;;2.60;;
26656;SDS011;14279;50.010;8.260;2022-12-29T09:47:10;2.87;;;2.67;;
26656;SDS011;14279;50.010;8.260;2022-12-29T09:52:25;3.33;;;2.17;;
26656;SDS011;14279;50.010;8.260;2022-12-29T09:55:10;3.43;;;1.97;;
26656;SDS011;14279;50.010;8.260;2022-12-29T09:58:26;5.77;;;1.87;;
26656;SDS011;14279;50.010;8.260;2022-12-29T10:00:47;2.20;;;2.00;;
26656;SDS011;14279;50.010;8.260;2022-12-29T10:03:20;1.83;;;1.70;;
26656;SDS011;14279;50.010;8.260;2022-12-29T10:09:02;1.63;;;1.53;;
26656;SDS011;14279;50.010;8.260;2022-12-29T10:11:44;1.70;;;1.30;;
26656;SDS011;14279;50.010;8.260;2022-12-29T10:14:33;1.17;;;1.17;;
26656;SDS011;14279;50.010;8.260;2022-12-29T10:17:20;2.07;;;1.30;;
26656;SDS011;14279;50.010;8.260;2022-12-29T10:23:24;1.00;;;0.90;;
26656;SDS011;14279;50.010;8.260;2022-12-29T10:25:54;1.33;;;1.13;;
26656;SDS011;14279;50.010;8.260;2022-12-29T10:28:22;1.30;;;1.10;;
26656;SDS011;14279;50.010;8.260;2022-12-29T10:30:56;3.60;;;1.00;;
26656;SDS011;14279;50.010;8.260;2022-12-29T10:33:25;5.40;;;1.00;;
26656;SDS011;14279;50.010;8.260;2022-12-29T10:35:59;1.63;;;1.00;;
26656;SDS011;14279;50.010;8.260;2022-12-29T10:38:28;2.10;;;0.90;;
26656;SDS011;14279;50.010;8.260;2022-12-29T10:43:45;3.97;;;1.00;;
26656;SDS011;14279;50.010;8.260;2022-12-29T10:46:16;1.93;;;0.97;;
26656;SDS011;14279;50.010;8.260;2022-12-29T10:48:45;2.60;;;1.00;;
26656;SDS011;14279;50.010;8.260;2022-12-29T10:51:14;3.90;;;1.20;;
26656;SDS011;14279;50.010;8.260;2022-12-29T10:53:59;5.03;;;1.30;;
26656;SDS011;14279;50.010;8.260;2022-12-29T10:56:34;2.83;;;1.10;;
26656;SDS011;14279;50.010;8.260;2022-12-29T10:59:21;5.83;;;1.20;;
26656;SDS011;14279;50.010;8.260;2022-12-29T11:01:52;1.70;;;0.87;;
26656;SDS011;14279;50.010;8.260;2022-12-29T11:07:01;1.03;;;0.83;;
26656;SDS011;14279;50.010;8.260;2022-12-29T11:09:31;2.80;;;1.17;;
26656;SDS011;14279;50.010;8.260;2022-12-29T11:11:59;2.83;;;1.07;;
26656;SDS011;14279;50.010;8.260;2022-12-29T11:14:28;1.33;;;0.87;;
26656;SDS011;14279;50.010;8.260;2022-12-29T11:16:59;10.80;;;1.23;;
26656;SDS011;14279;50.010;8.260;2022-12-29T11:19:26;3.30;;;1.20;;
26656;SDS011;14279;50.010;8.260;2022-12-29T11:21:53;2.30;;;1.13;;
26656;SDS011;14279;50.010;8.260;2022-12-29T11:26:46;2.70;;;0.97;;
26656;SDS011;14279;50.010;8.260;2022-12-29T11:29:22;2.10;;;1.40;;
26656;SDS011;14279;50.010;8.260;2022-12-29T11:31:53;1.23;;;0.80;;
26656;SDS011;14279;50.010;8.260;2022-12-29T11:36:45;4.20;;;1.07;;
26656;SDS011;14279;50.010;8.260;2022-12-29T11:39:24;1.10;;;0.80;;
26656;SDS011;14279;50.010;8.260;2022-12-29T11:41:55;3.23;;;1.27;;
26656;SDS011;14279;50.010;8.260;2022-12-29T11:44:22;5.00;;;1.53;;
26656;SDS011;14279;50.010;8.260;2022-12-29T11:46:48;3.23;;;1.20;;
26656;SDS011;14279;50.010;8.260;2022-12-29T11:49:20;6.73;;;1.27;;
26656;SDS011;14279;50.010;8.260;2022-12-29T11:51:49;1.83;;;0.90;;
26656;SDS011;14279;50.010;8.260;2022-12-29T11:54:19;1.90;;;1.00;;
26656;SDS011;14279;50.010;8.260;2022-12-29T11:56:51;1.23;;;1.00;;
26656;SDS011;14279;50.010;8.260;2022-12-29T12:01:51;1.87;;;1.20;;
26656;SDS011;14279;50.010;8.260;2022-12-29T12:04:17;4.87;;;1.30;;
26656;SDS011;14279;50.010;8.260;2022-12-29T12:06:50;1.53;;;0.90;;
26656;SDS011;14279;50.010;8.260;2022-12-29T12:09:23;3.17;;;1.00;;
26656;SDS011;14279;50.010;8.260;2022-12-29T12:11:53;3.07;;;1.17;;
26656;SDS011;14279;50.010;8.260;2022-12-29T12:14:45;2.43;;;1.17;;
26656;SDS011;14279;50.010;8.260;2022-12-29T12:17:24;3.07;;;1.43;;
26656;SDS011;14279;50.010;8.260;2022-12-29T12:20:02;1.87;;;1.23;;
26656;SDS011;14279;50.010;8.260;2022-12-29T12:22:46;2.20;;;1.00;;
26656;SDS011;14279;50.010;8.260;2022-12-29T12:25:37;4.83;;;1.27;;
26656;SDS011;14279;50.010;8.260;2022-12-29T12:28:13;2.80;;;1.00;;
26656;SDS011;14279;50.010;8.260;2022-12-29T12:30:43;3.07;;;1.20;;
26656;SDS011;14279;50.010;8.260;2022-12-29T12:33:16;3.80;;;1.03;;
26656;SDS011;14279;50.010;8.260;2022-12-29T12:36:14;2.23;;;1.00;;
26656;SDS011;14279;50.010;8.260;2022-12-29T12:52:50;1.43;;;1.10;;
26656;SDS011;14279;50.010;8.260;2022-12-29T13:03:47;1.70;;;1.60;;
26656;SDS011;14279;50.010;8.260;2022-12-29T13:06:32;2.90;;;1.40;;
26656;SDS011;14279;50.010;8.260;2022-12-29T13:11:42;1.30;;;1.20;;
26656;SDS011;14279;50.010;8.260;2022-12-29T13:17:13;6.00;;;1.30;;
26656;SDS011;14279;50.010;8.260;2022-12-29T13:20:03;2.17;;;1.20;;
26656;SDS011;14279;50.010;8.260;2022-12-29T13:22:42;4.87;;;1.50;;
26656;SDS011;14279;50.010;8.260;2022-12-29T13:27:46;3.43;;;1.10;;
26656;SDS011;14279;50.010;8.260;2022-12-29T13:30:19;3.50;;;1.10;;
26656;SDS011;14279;50.010;8.260;2022-12-29T13:32:50;3.67;;;1.30;;
26656;SDS011;14279;50.010;8.260;2022-12-29T13:40:56;3.90;;;1.23;;
26656;SDS011;14279;50.010;8.260;2022-12-29T13:43:27;4.00;;;1.33;;
26656;SDS011;14279;50.010;8.260;2022-12-29T13:46:14;3.97;;;1.50;;
26656;SDS011;14279;50.010;8.260;2022-12-29T13:48:53;2.33;;;1.03;;
26656;SDS011;14279;50.010;8.260;2022-12-29T13:51:23;4.00;;;1.50;;
26656;SDS011;14279;50.010;8.260;2022-12-29T13:53:55;3.50;;;1.20;;
26656;SDS011;14279;50.010;8.260;2022-12-29T13:59:03;3.07;;;1.63;;
26656;SDS011;14279;50.010;8.260;2022-12-29T14:01:40;4.87;;;1.50;;
26656;SDS011;14279;50.010;8.260;2022-12-29T14:04:22;3.77;;;1.20;;
26656;SDS011;14279;50.010;8.260;2022-12-29T14:07:03;2.13;;;1.40;;
26656;SDS011;14279;50.010;8.260;2022-12-29T14:09:44;2.97;;;1.20;;
26656;SDS011;14279;50.010;8.260;2022-12-29T14:17:34;3.67;;;1.53;;
26656;SDS011;14279;50.010;8.260;2022-12-29T14:20:00;5.70;;;1.30;;
26656;SDS011;14279;50.010;8.260;2022-12-29T14:22:26;4.10;;;1.67;;
26656;SDS011;14279;50.010;8.260;2022-12-29T14:24:53;2.70;;;1.20;;
26656;SDS011;14279;50.010;8.260;2022-12-29T14:29:44;6.97;;;1.57;;
26656;SDS011;14279;50.010;8.260;2022-12-29T14:34:45;5.77;;;1.53;;
26656;SDS011;14279;50.010;8.260;2022-12-29T14:37:30;5.03;;;1.50;;
26656;SDS011;14279;50.010;8.260;2022-12-29T14:42:43;2.90;;;1.43;;
26656;SDS011;14279;50.010;8.260;2022-12-29T14:47:43;6.20;;;1.90;;
26656;SDS011;14279;50.010;8.260;2022-12-29T14:55:36;6.53;;;1.40;;
26656;SDS011;14279;50.010;8.260;2022-12-29T14:58:04;5.23;;;1.53;;
26656;SDS011;14279;50.010;8.260;2022-12-29T15:00:34;5.30;;;1.63;;
26656;SDS011;14279;50.010;8.260;2022-12-29T15:03:05;4.47;;;1.50;;
26656;SDS011;14279;50.010;8.260;2022-12-29T15:05:45;3.10;;;1.37;;
26656;SDS011;14279;50.010;8.260;2022-12-29T15:08:15;3.53;;;1.30;;
26656;SDS011;14279;50.010;8.260;2022-12-29T15:10:45;4.43;;;2.13;;
26656;SDS011;14279;50.010;8.260;2022-12-29T15:13:15;3.90;;;1.50;;
26656;SDS011;14279;50.010;8.260;2022-12-29T15:15:45;2.90;;;1.30;;
26656;SDS011;14279;50.010;8.260;2022-12-29T15:18:30;12.50;;;2.30;;
26656;SDS011;14279;50.010;8.260;2022-12-29T15:21:00;6.93;;;1.57;;
26656;SDS011;14279;50.010;8.260;2022-12-29T15:23:29;6.63;;;1.40;;
26656;SDS011;14279;50.010;8.260;2022-12-29T15:25:57;9.17;;;1.80;;
26656;SDS011;14279;50.010;8.260;2022-12-29T15:28:25;6.27;;;1.87;;
26656;SDS011;14279;50.010;8.260;2022-12-29T15:30:53;3.90;;;1.40;;
26656;SDS011;14279;50.010;8.260;2022-12-29T15:33:24;4.97;;;1.50;;
26656;SDS011;14279;50.010;8.260;2022-12-29T15:35:52;7.73;;;1.73;;
26656;SDS011;14279;50.010;8.260;2022-12-29T15:38:23;4.37;;;1.60;;
26656;SDS011;14279;50.010;8.260;2022-12-29T15:40:54;8.60;;;2.00;;
26656;SDS011;14279;50.010;8.260;2022-12-29T15:43:30;7.23;;;2.30;;
26656;SDS011;14279;50.010;8.260;2022-12-29T15:46:05;3.63;;;1.60;;
26656;SDS011;14279;50.010;8.260;2022-12-29T15:48:30;5.50;;;2.27;;
26656;SDS011;14279;50.010;8.260;2022-12-29T15:50:57;4.00;;;1.60;;
26656;SDS011;14279;50.010;8.260;2022-12-29T15:53:24;7.07;;;1.90;;
26656;SDS011;14279;50.010;8.260;2022-12-29T15:55:54;3.03;;;1.33;;
26656;SDS011;14279;50.010;8.260;2022-12-29T15:58:27;4.20;;;1.67;;
26656;SDS011;14279;50.010;8.260;2022-12-29T16:00:54;8.90;;;2.00;;
26656;SDS011;14279;50.010;8.260;2022-12-29T16:03:22;2.50;;;1.50;;
26656;SDS011;14279;50.010;8.260;2022-12-29T16:05:54;9.80;;;1.70;;
26656;SDS011;14279;50.010;8.260;2022-12-29T16:10:52;6.40;;;1.67;;
26656;SDS011;14279;50.010;8.260;2022-12-29T16:13:24;7.33;;;2.17;;
26656;SDS011;14279;50.010;8.260;2022-12-29T16:15:55;9.10;;;1.50;;
26656;SDS011;14279;50.010;8.260;2022-12-29T16:18:25;6.20;;;1.60;;
26656;SDS011;14279;50.010;8.260;2022-12-29T16:20:53;12.13;;;1.80;;
26656;SDS011;14279;50.010;8.260;2022-12-29T16:23:22;8.20;;;1.70;;
26656;SDS011;14279;50.010;8.260;2022-12-29T16:25:50;5.03;;;1.67;;
26656;SDS011;14279;50.010;8.260;2022-12-29T16:28:21;4.63;;;1.70;;
26656;SDS011;14279;50.010;8.260;2022-12-29T16:30:57;3.53;;;1.70;;
26656;SDS011;14279;50.010;8.260;2022-12-29T16:33:35;3.03;;;1.40;;
26656;SDS011;14279;50.010;8.260;2022-12-29T16:36:20;4.03;;;1.33;;
26656;SDS011;14279;50.010;8.260;2022-12-29T16:38:47;5.90;;;2.40;;
26656;SDS011;14279;50.010;8.260;2022-12-29T16:41:25;4.87;;;1.40;;
26656;SDS011;14279;50.010;8.260;2022-12-29T16:46:40;4.17;;;1.30;;
26656;SDS011;14279;50.010;8.260;2022-12-29T16:49:20;5.50;;;1.90;;
26656;SDS011;14279;50.010;8.260;2022-12-29T16:51:46;3.97;;;1.70;;
26656;SDS011;14279;50.010;8.260;2022-12-29T16:54:18;7.57;;;2.17;;
26656;SDS011;14279;50.010;8.260;2022-12-29T16:56:46;7.57;;;1.90;;
26656;SDS011;14279;50.010;8.260;2022-12-29T17:01:59;7.03;;;2.13;;